Time;durP1;ratioP1;P1;durP2;ratioP2;P2;SDS_P1;SDS_P2;PMS_P1;PMS_P2;Temp;Humidity;BMP_temperature;BMP_pressure;BME280_temperature;BME280_humidity;BME280_pressure;Samples;Min_cycle;Max_cycle;Signal;HPM_P1;HPM_P2
2023/08/13 00:01:50;;;;;;;18.48;12.43;;;15.20;99.90;;;;;;5093934;28;20070;-70
2023/08/13 00:04:16;;;;;;;20.60;12.88;;;15.10;99.90;;;;;;5093595;28;20051;-70
2023/08/13 00:06:41;;;;;;;17.63;12.70;;;15.20;99.90;;;;;;5093175;28;20063;-71
2023/08/13 00:09:07;;;;;;;17.77;13.18;;;15.10;99.90;;;;;;5092713;28;20044;-70
2023/08/13 00:11:33;;;;;;;18.98;12.82;;;15.10;99.90;;;;;;5093609;28;20020;-70
2023/08/13 00:13:58;;;;;;;23.38;16.90;;;15.00;99.90;;;;;;5093521;28;20035;-72
2023/08/13 00:16:24;;;;;;;22.20;15.40;;;15.10;99.90;;;;;;5094618;28;20169;-72
2023/08/13 00:18:49;;;;;;;21.50;13.90;;;15.00;99.90;;;;;;5097493;28;20055;-72
2023/08/13 00:21:15;;;;;;;16.63;12.38;;;15.10;99.90;;;;;;5096878;28;20035;-72
2023/08/13 00:23:41;;;;;;;18.42;12.57;;;15.10;99.90;;;;;;5097031;28;20466;-72
2023/08/13 00:26:07;;;;;;;24.60;14.65;;;15.10;99.90;;;;;;5096651;28;20028;-71
2023/08/13 00:28:32;;;;;;;22.67;12.68;;;15.10;99.90;;;;;;5096958;28;20031;-72
2023/08/13 00:30:59;;;;;;;16.60;12.38;;;15.10;99.90;;;;;;5096935;28;20411;-72
2023/08/13 00:33:25;;;;;;;20.60;13.52;;;15.10;99.90;;;;;;5097212;28;20031;-72
2023/08/13 00:35:51;;;;;;;20.85;13.75;;;15.00;99.90;;;;;;5096396;28;20545;-72
2023/08/13 00:38:17;;;;;;;24.40;15.73;;;15.00;99.90;;;;;;5096812;28;20024;-72
2023/08/13 00:40:43;;;;;;;21.30;13.95;;;15.00;99.90;;;;;;5096671;28;20032;-72
2023/08/13 00:43:08;;;;;;;17.52;12.30;;;15.00;99.90;;;;;;5096961;28;20028;-72
2023/08/13 00:45:35;;;;;;;16.35;12.23;;;15.00;99.90;;;;;;5096505;28;20073;-72
2023/08/13 00:48:02;;;;;;;14.23;11.68;;;15.00;99.90;;;;;;5096412;28;20035;-72
2023/08/13 00:50:28;;;;;;;16.98;12.65;;;15.00;99.90;;;;;;5095541;28;20038;-72
2023/08/13 00:52:54;;;;;;;27.10;16.67;;;14.90;99.90;;;;;;5096763;28;20027;-72
2023/08/13 00:55:20;;;;;;;21.17;14.77;;;14.90;99.90;;;;;;5095432;28;20518;-72
2023/08/13 00:57:46;;;;;;;22.50;17.38;;;14.90;99.90;;;;;;5096315;28;20126;-72
2023/08/13 01:00:13;;;;;;;17.08;14.07;;;15.00;99.90;;;;;;5096545;28;20112;-72
2023/08/13 01:02:38;;;;;;;32.05;18.02;;;14.90;99.90;;;;;;5096536;28;20024;-72
2023/08/13 01:05:05;;;;;;;20.58;14.98;;;14.90;99.90;;;;;;5095736;28;20055;-72
2023/08/13 01:07:54;;;;;;;21.77;15.63;;;14.90;99.90;;;;;;5095998;28;20110;-72
2023/08/13 01:10:33;;;;;;;17.83;13.93;;;14.90;99.90;;;;;;5095839;28;20043;-72
2023/08/13 01:15:42;;;;;;;26.80;15.95;;;14.90;99.90;;;;;;5091676;28;20370;-72
2023/08/13 01:18:09;;;;;;;25.77;15.95;;;15.00;99.90;;;;;;5091589;28;20036;-71
2023/08/13 01:20:37;;;;;;;22.75;16.02;;;15.00;99.90;;;;;;5091312;28;20024;-70
2023/08/13 01:23:04;;;;;;;27.85;16.90;;;15.10;99.90;;;;;;5090606;28;20024;-70
2023/08/13 01:25:31;;;;;;;25.90;16.10;;;15.10;99.90;;;;;;5091301;28;20462;-71
2023/08/13 01:28:21;;;;;;;22.92;15.80;;;15.10;99.90;;;;;;5091602;28;20450;-71
2023/08/13 01:30:53;;;;;;;22.35;15.18;;;15.10;99.90;;;;;;5090997;28;20040;-71
2023/08/13 01:33:27;;;;;;;26.17;16.48;;;15.20;99.90;;;;;;5090852;28;20025;-70
2023/08/13 01:35:56;;;;;;;21.63;14.65;;;15.30;99.90;;;;;;5091439;28;20032;-71
2023/08/13 01:38:23;;;;;;;25.05;16.33;;;15.30;99.90;;;;;;5090759;28;20077;-71
2023/08/13 01:40:50;;;;;;;23.88;16.85;;;15.40;99.90;;;;;;5090699;28;20017;-73
2023/08/13 01:43:16;;;;;;;22.63;15.55;;;15.40;99.90;;;;;;5091038;28;20025;-71
2023/08/13 01:45:42;;;;;;;21.85;14.50;;;15.40;99.90;;;;;;5091244;28;20030;-71
2023/08/13 01:48:08;;;;;;;16.60;13.43;;;15.40;99.90;;;;;;5090758;28;20403;-70
2023/08/13 01:50:34;;;;;;;19.60;14.90;;;15.50;99.90;;;;;;5091247;28;20016;-70
2023/08/13 01:53:00;;;;;;;20.42;14.05;;;15.50;99.90;;;;;;5090992;28;20030;-71
2023/08/13 01:55:25;;;;;;;20.45;14.82;;;15.50;99.90;;;;;;5090383;28;20058;-72
2023/08/13 01:57:51;;;;;;;19.90;13.50;;;15.50;99.90;;;;;;5091016;28;20024;-71
2023/08/13 02:00:17;;;;;;;15.68;12.05;;;15.40;99.90;;;;;;5090914;28;20035;-71
2023/08/13 02:02:42;;;;;;;18.98;12.65;;;15.50;99.90;;;;;;5090879;28;20028;-71
2023/08/13 02:05:08;;;;;;;16.90;12.32;;;15.40;99.90;;;;;;5090577;28;20465;-71
2023/08/13 02:07:34;;;;;;;17.55;12.05;;;15.50;99.90;;;;;;5090794;28;20115;-71
2023/08/13 02:10:00;;;;;;;26.35;14.55;;;15.50;99.90;;;;;;5090547;28;20035;-71
2023/08/13 02:12:25;;;;;;;20.00;13.82;;;15.40;99.90;;;;;;5090408;28;20075;-70
2023/08/13 02:14:51;;;;;;;20.33;13.18;;;15.60;99.90;;;;;;5089676;28;20405;-71
2023/08/13 02:17:17;;;;;;;17.08;12.65;;;15.30;99.90;;;;;;5090462;28;20028;-70
2023/08/13 02:19:42;;;;;;;15.05;11.32;;;15.30;99.90;;;;;;5089870;28;20048;-71
2023/08/13 02:22:08;;;;;;;14.13;10.98;;;15.20;99.90;;;;;;5090629;28;20402;-70
2023/08/13 02:24:34;;;;;;;15.13;10.95;;;15.20;99.90;;;;;;5090169;28;20020;-71
2023/08/13 02:26:59;;;;;;;15.05;10.98;;;15.30;99.90;;;;;;5077104;28;20056;-70
2023/08/13 02:29:25;;;;;;;15.88;12.18;;;15.10;99.90;;;;;;5076256;28;20052;-71
2023/08/13 02:31:50;;;;;;;26.00;14.38;;;15.10;99.90;;;;;;5076907;28;20039;-71
2023/08/13 02:34:16;;;;;;;27.40;14.88;;;15.10;99.90;;;;;;5076446;28;20115;-71
2023/08/13 02:36:42;;;;;;;19.15;14.27;;;15.00;99.90;;;;;;5076418;28;20028;-72
2023/08/13 02:39:07;;;;;;;24.05;14.52;;;15.00;99.90;;;;;;5076821;28;20517;-70
2023/08/13 02:41:33;;;;;;;20.83;13.60;;;14.90;99.90;;;;;;5076308;28;20016;-70
2023/08/13 02:43:59;;;;;;;23.08;12.45;;;14.80;99.90;;;;;;5076667;28;20378;-71
2023/08/13 02:46:25;;;;;;;16.58;12.05;;;14.80;99.90;;;;;;5076219;28;20060;-71
2023/08/13 02:48:54;;;;;;;19.63;12.75;;;14.80;99.90;;;;;;5076050;28;20033;-71
2023/08/13 02:51:19;;;;;;;25.38;14.32;;;14.80;99.90;;;;;;5076116;28;20081;-71
2023/08/13 02:53:45;;;;;;;20.50;12.77;;;14.80;99.90;;;;;;5076035;28;20472;-71
2023/08/13 02:56:11;;;;;;;19.08;12.75;;;14.70;99.90;;;;;;5076201;28;20032;-71
2023/08/13 02:58:36;;;;;;;20.60;12.38;;;14.80;99.90;;;;;;5075870;28;20024;-71
2023/08/13 03:01:03;;;;;;;17.02;12.10;;;14.70;99.90;;;;;;5075708;28;20029;-71
2023/08/13 03:03:28;;;;;;;16.33;10.77;;;14.70;99.90;;;;;;5076337;28;20027;-71
2023/08/13 03:05:54;;;;;;;14.77;10.80;;;14.60;99.90;;;;;;5076242;28;20025;-71
2023/08/13 03:08:20;;;;;;;16.65;10.68;;;14.60;99.90;;;;;;5075690;28;20035;-72
2023/08/13 03:10:46;;;;;;;17.25;12.27;;;14.60;99.90;;;;;;5074924;28;20020;-73
2023/08/13 03:13:11;;;;;;;19.30;12.00;;;14.50;99.90;;;;;;5075749;28;20025;-71
2023/08/13 03:15:37;;;;;;;15.32;10.48;;;14.50;99.90;;;;;;5075451;28;20036;-71
2023/08/13 03:18:03;;;;;;;18.40;11.73;;;14.50;99.90;;;;;;5076076;28;20458;-71
2023/08/13 03:20:28;;;;;;;17.05;11.85;;;14.40;99.90;;;;;;5076076;28;20462;-71
2023/08/13 03:22:54;;;;;;;19.50;13.25;;;14.40;99.90;;;;;;5075690;28;20485;-71
2023/08/13 03:25:20;;;;;;;17.15;11.32;;;14.40;99.90;;;;;;5075854;28;20037;-71
2023/08/13 03:27:48;;;;;;;14.43;10.00;;;14.40;99.90;;;;;;5075683;28;20029;-71
2023/08/13 03:30:13;;;;;;;15.27;10.90;;;14.30;99.90;;;;;;5075782;28;20496;-71
2023/08/13 03:32:39;;;;;;;18.80;11.60;;;14.30;99.90;;;;;;5075786;28;20032;-71
2023/08/13 03:35:05;;;;;;;15.13;11.30;;;14.30;99.90;;;;;;5075481;28;20500;-71
2023/08/13 03:37:31;;;;;;;12.75;9.88;;;14.30;99.90;;;;;;5073975;28;20030;-71
2023/08/13 03:39:56;;;;;;;25.35;13.52;;;14.30;99.90;;;;;;5075673;28;20445;-71
2023/08/13 03:42:22;;;;;;;21.13;12.57;;;14.20;99.90;;;;;;5075146;28;20017;-71
2023/08/13 03:44:47;;;;;;;20.60;12.02;;;14.30;99.90;;;;;;5075010;28;20536;-71
2023/08/13 03:47:13;;;;;;;17.67;11.48;;;14.20;99.90;;;;;;5074967;28;20107;-71
2023/08/13 03:49:40;;;;;;;21.00;11.75;;;14.20;99.90;;;;;;5075252;28;20093;-71
2023/08/13 03:52:06;;;;;;;19.02;12.02;;;14.20;99.90;;;;;;5074326;28;20060;-71
2023/08/13 03:54:31;;;;;;;19.75;12.93;;;14.30;99.90;;;;;;5074633;28;20064;-72
2023/08/13 03:56:57;;;;;;;16.50;11.95;;;14.30;99.90;;;;;;5074122;28;20025;-71
2023/08/13 03:59:23;;;;;;;15.20;11.77;;;14.30;99.90;;;;;;5075194;28;20082;-71
2023/08/13 04:01:48;;;;;;;18.35;12.60;;;14.30;99.90;;;;;;5075272;28;20024;-71
2023/08/13 04:04:14;;;;;;;19.30;11.18;;;14.10;99.90;;;;;;5075164;28;20475;-71
2023/08/13 04:06:40;;;;;;;16.10;11.38;;;14.40;99.90;;;;;;5074863;28;20037;-71
2023/08/13 04:09:06;;;;;;;17.63;11.63;;;14.20;99.90;;;;;;5074967;28;20025;-71
2023/08/13 04:11:31;;;;;;;19.77;11.88;;;14.30;99.90;;;;;;5074557;28;20032;-71
2023/08/13 04:13:57;;;;;;;17.08;11.43;;;14.10;99.90;;;;;;5074039;28;20044;-72
2023/08/13 04:16:23;;;;;;;18.08;12.07;;;14.20;99.90;;;;;;5075104;28;20470;-71
2023/08/13 04:18:50;;;;;;;16.05;12.05;;;14.20;99.90;;;;;;5074653;28;20056;-72
2023/08/13 04:21:16;;;;;;;16.40;11.20;;;14.10;99.90;;;;;;5074841;28;20078;-71
2023/08/13 04:23:42;;;;;;;22.63;12.68;;;14.10;99.90;;;;;;5054683;28;20033;-71
2023/08/13 04:26:07;;;;;;;24.13;12.52;;;14.10;99.90;;;;;;5054706;28;20024;-71
2023/08/13 04:28:33;;;;;;;20.05;12.77;;;14.20;99.90;;;;;;5054389;28;20067;-71
2023/08/13 04:30:59;;;;;;;16.92;12.48;;;14.10;99.90;;;;;;5054599;28;20127;-71
2023/08/13 04:33:25;;;;;;;15.85;12.07;;;14.20;99.90;;;;;;5054258;28;20033;-71
2023/08/13 04:35:53;;;;;;;17.77;11.52;;;14.30;99.90;;;;;;5054399;28;20029;-72
2023/08/13 04:38:20;;;;;;;15.68;12.50;;;14.40;99.90;;;;;;5054578;28;20024;-71
2023/08/13 04:40:47;;;;;;;19.52;13.10;;;14.40;99.90;;;;;;5053857;28;20029;-71
2023/08/13 04:43:14;;;;;;;19.67;12.73;;;14.60;99.90;;;;;;5054200;28;20381;-72
2023/08/13 04:45:39;;;;;;;22.00;12.82;;;14.70;99.90;;;;;;5054384;28;20510;-71
2023/08/13 04:48:05;;;;;;;18.35;12.35;;;15.00;99.90;;;;;;5054209;28;20114;-72
2023/08/13 04:50:32;;;;;;;21.70;12.27;;;14.80;99.90;;;;;;5054052;28;20033;-72
2023/08/13 04:52:58;;;;;;;16.58;12.15;;;14.80;99.90;;;;;;5054059;28;20025;-71
2023/08/13 04:55:23;;;;;;;20.60;12.73;;;14.90;99.90;;;;;;5053823;28;20477;-71
2023/08/13 04:57:49;;;;;;;17.98;11.15;;;15.00;99.90;;;;;;5054042;28;20051;-71
2023/08/13 05:00:15;;;;;;;13.68;10.20;;;14.90;99.90;;;;;;5053931;28;20433;-71
2023/08/13 05:02:41;;;;;;;17.85;11.35;;;15.10;99.90;;;;;;5052900;28;20116;-71
2023/08/13 05:05:07;;;;;;;16.75;10.23;;;15.30;99.90;;;;;;5054130;28;20063;-71
2023/08/13 05:07:32;;;;;;;17.65;10.85;;;15.40;99.90;;;;;;5053792;28;20497;-70
2023/08/13 05:09:58;;;;;;;19.58;10.90;;;15.50;99.90;;;;;;5053456;28;20119;-69
2023/08/13 05:12:24;;;;;;;13.95;9.10;;;15.70;99.90;;;;;;5054119;28;20033;-69
2023/08/13 05:14:49;;;;;;;14.68;8.73;;;15.70;99.90;;;;;;5052897;28;20056;-69
2023/08/13 05:17:18;;;;;;;14.90;8.95;;;15.80;99.90;;;;;;5053238;28;20079;-68
2023/08/13 05:19:44;;;;;;;14.95;9.48;;;16.00;99.90;;;;;;5054125;28;20174;-69
2023/08/13 05:22:09;;;;;;;12.55;9.05;;;16.00;99.90;;;;;;5053726;28;20063;-69
2023/08/13 05:24:35;;;;;;;11.88;7.70;;;16.00;99.90;;;;;;5054044;28;20459;-69
2023/08/13 05:27:00;;;;;;;12.35;8.10;;;16.00;99.90;;;;;;5054038;28;20118;-70
2023/08/13 05:29:26;;;;;;;10.27;7.78;;;16.10;99.90;;;;;;5053557;28;20021;-70
2023/08/13 05:31:53;;;;;;;9.32;7.32;;;16.40;99.90;;;;;;5053939;28;20359;-70
2023/08/13 05:34:19;;;;;;;11.88;7.50;;;16.60;99.90;;;;;;5052670;28;20021;-70
2023/08/13 05:36:44;;;;;;;12.00;7.22;;;16.80;99.90;;;;;;5053549;28;20040;-70
2023/08/13 05:39:10;;;;;;;10.40;7.18;;;17.00;99.90;;;;;;5053546;28;20017;-71
2023/08/13 05:41:36;;;;;;;11.73;7.13;;;17.20;99.90;;;;;;5053594;28;20029;-72
2023/08/13 05:44:02;;;;;;;12.80;6.55;;;17.40;99.90;;;;;;5053855;28;20033;-70
2023/08/13 05:46:28;;;;;;;9.50;6.03;;;17.40;99.90;;;;;;5053505;28;20040;-70
2023/08/13 05:48:53;;;;;;;12.18;6.07;;;17.70;99.90;;;;;;5053162;28;20363;-70
2023/08/13 05:51:19;;;;;;;9.23;5.90;;;18.40;99.90;;;;;;5053359;28;20115;-70
2023/08/13 05:53:45;;;;;;;11.68;4.93;;;18.80;99.90;;;;;;5053668;28;20029;-70
2023/08/13 05:56:10;;;;;;;8.90;4.32;;;19.60;99.90;;;;;;5053113;28;20120;-71
2023/08/13 05:58:36;;;;;;;10.32;4.57;;;19.60;99.90;;;;;;5053634;28;20082;-71
2023/08/13 06:01:03;;;;;;;10.60;4.45;;;19.90;99.90;;;;;;5054853;28;20025;-71
2023/08/13 06:03:28;;;;;;;12.20;4.50;;;20.50;99.90;;;;;;5056960;28;20029;-71
2023/08/13 06:05:55;;;;;;;11.05;3.97;;;20.90;72.30;;;;;;5057452;28;20378;-70
2023/08/13 06:08:21;;;;;;;14.18;4.80;;;20.60;57.00;;;;;;5057276;28;20021;-70
2023/08/13 06:10:46;;;;;;;11.57;4.28;;;20.00;49.10;;;;;;5056853;28;20039;-71
2023/08/13 06:13:12;;;;;;;10.15;4.40;;;19.40;65.50;;;;;;5056821;28;20029;-71
2023/08/13 06:15:38;;;;;;;11.52;4.85;;;19.70;90.90;;;;;;5056924;28;20029;-70
2023/08/13 06:18:04;;;;;;;9.88;4.93;;;19.70;95.40;;;;;;5055923;28;20028;-70
2023/08/13 06:20:31;;;;;;;12.45;4.32;;;19.80;92.10;;;;;;5056256;28;20028;-70
2023/08/13 06:22:57;;;;;;;13.32;4.22;;;19.50;86.10;;;;;;5056890;28;20028;-70
2023/08/13 06:25:22;;;;;;;15.00;5.07;;;19.40;82.30;;;;;;5056689;28;20025;-70
2023/08/13 06:27:48;;;;;;;11.85;4.18;;;19.30;92.00;;;;;;5056369;28;20040;-70
2023/08/13 06:30:13;;;;;;;11.90;4.28;;;19.70;87.40;;;;;;5056667;28;20036;-70
2023/08/13 06:32:39;;;;;;;15.27;5.13;;;19.60;61.50;;;;;;5056272;28;20036;-70
2023/08/13 06:35:05;;;;;;;12.90;4.78;;;19.80;43.80;;;;;;5056588;28;20029;-70
2023/08/13 06:37:31;;;;;;;13.15;4.18;;;19.70;47.80;;;;;;5056319;28;20033;-70
2023/08/13 06:39:56;;;;;;;14.10;4.82;;;19.60;40.30;;;;;;5056449;28;20028;-70
2023/08/13 06:42:23;;;;;;;13.25;4.38;;;19.60;23.60;;;;;;5056303;28;20021;-70
2023/08/13 06:44:49;;;;;;;14.93;4.82;;;19.30;35.80;;;;;;5056004;28;20475;-70
2023/08/13 06:47:14;;;;;;;12.13;4.93;;;19.20;72.50;;;;;;5056295;28;20040;-70
2023/08/13 06:49:40;;;;;;;15.93;4.75;;;19.30;68.10;;;;;;5056570;28;20503;-70
2023/08/13 06:52:06;;;;;;;12.02;4.63;;;19.50;59.20;;;;;;5056172;28;20029;-70
2023/08/13 06:54:32;;;;;;;12.75;4.13;;;19.50;51.60;;;;;;5055978;28;20020;-72
2023/08/13 06:56:59;;;;;;;15.60;4.82;;;19.40;59.00;;;;;;5056401;28;20028;-70
2023/08/13 06:59:24;;;;;;;14.50;4.00;;;19.80;26.00;;;;;;5056466;28;20024;-69
2023/08/13 07:01:50;;;;;;;9.32;3.20;;;20.20;1.00;;;;;;5056117;28;20069;-69
2023/08/13 07:04:16;;;;;;;8.60;2.92;;;20.60;1.00;;;;;;5055887;28;20025;-70
2023/08/13 07:06:41;;;;;;;9.95;3.53;;;20.90;1.00;;;;;;5056269;28;20040;-70
2023/08/13 07:09:07;;;;;;;9.68;3.78;;;20.80;1.00;;;;;;5056302;28;20033;-70
2023/08/13 07:11:34;;;;;;;9.35;3.03;;;20.40;1.00;;;;;;5056128;28;20079;-70
2023/08/13 07:13:59;;;;;;;13.35;3.42;;;21.00;1.00;;;;;;5055189;28;20068;-70
2023/08/13 07:16:25;;;;;;;10.57;3.60;;;21.80;1.00;;;;;;5056070;28;20025;-70
2023/08/13 07:18:51;;;;;;;7.22;3.25;;;22.40;1.00;;;;;;5055786;28;20037;-70
2023/08/13 07:21:16;;;;;;;7.90;2.75;;;23.40;99.90;;;;;;5055796;28;20116;-70
2023/08/13 07:23:42;;;;;;;10.52;2.90;;;24.00;99.90;;;;;;5055320;28;20106;-70
2023/08/13 07:26:08;;;;;;;7.88;2.72;;;;;;;;;;5054864;28;20466;-70
2023/08/13 07:28:34;;;;;;;8.63;2.60;;;;;;;;;;5055637;28;20462;-70
2023/08/13 07:31:03;;;;;;;12.70;3.33;;;23.50;1.00;;;;;;5055802;28;20029;-69
2023/08/13 07:33:30;;;;;;;10.05;3.25;;;23.50;1.00;;;;;;5055782;28;20032;-70
2023/08/13 07:35:56;;;;;;;9.27;2.67;;;;;;;;;;5055481;28;20021;-69
2023/08/13 07:38:22;;;;;;;8.40;2.50;;;23.50;99.90;;;;;;5055441;28;20025;-70
2023/08/13 07:40:48;;;;;;;10.25;2.92;;;24.50;1.00;;;;;;5054621;28;20029;-69
2023/08/13 07:43:14;;;;;;;6.28;2.60;;;24.80;1.00;;;;;;5055275;28;20069;-69
2023/08/13 07:45:39;;;;;;;7.90;3.00;;;25.10;99.90;;;;;;5055326;28;20401;-69
2023/08/13 07:48:05;;;;;;;8.75;3.03;;;24.70;99.90;;;;;;5055053;28;20033;-69
2023/08/13 07:50:31;;;;;;;12.23;2.97;;;24.60;1.00;;;;;;5055499;28;20490;-69
2023/08/13 07:52:57;;;;;;;8.07;2.63;;;24.50;99.90;;;;;;5054842;28;20033;-69
2023/08/13 07:55:22;;;;;;;10.35;2.65;;;25.70;99.90;;;;;;5054857;28;20426;-69
2023/08/13 07:57:48;;;;;;;8.63;2.67;;;25.50;1.00;;;;;;5055376;28;20078;-69
2023/08/13 08:00:16;;;;;;;7.10;2.40;;;26.40;1.00;;;;;;5054940;28;20036;-70
2023/08/13 08:02:42;;;;;;;9.65;2.78;;;26.10;70.20;;;;;;5055155;28;20036;-70
2023/08/13 08:05:09;;;;;;;7.97;2.90;;;25.80;99.90;;;;;;5054594;28;20390;-69
2023/08/13 08:07:35;;;;;;;10.65;2.72;;;25.90;99.90;;;;;;5054499;28;20030;-69
2023/08/13 08:10:01;;;;;;;8.05;2.63;;;26.70;99.90;;;;;;5054569;28;20037;-69
2023/08/13 08:12:26;;;;;;;9.27;2.67;;;27.30;9.30;;;;;;5055058;28;20340;-70
2023/08/13 08:14:52;;;;;;;8.50;2.22;;;27.30;1.00;;;;;;5053921;28;20135;-70
2023/08/13 08:17:18;;;;;;;6.25;2.50;;;26.40;99.90;;;;;;5054538;28;20348;-70
2023/08/13 08:19:43;;;;;;;11.30;2.50;;;25.30;99.90;;;;;;5055002;28;20029;-70
2023/08/13 08:22:09;;;;;;;5.25;2.10;;;25.70;99.90;;;;;;5054510;28;20488;-69
2023/08/13 08:24:34;;;;;;;5.53;2.03;;;25.50;99.90;;;;;;5054223;28;20028;-69
2023/08/13 08:27:00;;;;;;;7.03;2.30;;;25.80;1.00;;;;;;5054472;28;20060;-69
2023/08/13 08:29:26;;;;;;;9.65;2.63;;;25.90;1.00;;;;;;5054159;28;20119;-69
2023/08/13 08:31:52;;;;;;;10.65;2.50;;;25.30;1.00;;;;;;5054649;28;20033;-69
2023/08/13 08:34:18;;;;;;;6.85;2.00;;;25.30;99.90;;;;;;5054481;28;20029;-69
2023/08/13 08:36:43;;;;;;;5.05;2.00;;;25.60;1.00;;;;;;5054663;28;20489;-69
2023/08/13 08:39:09;;;;;;;5.35;2.17;;;25.30;57.80;;;;;;5054219;28;20127;-69
2023/08/13 08:41:38;;;;;;;6.70;2.05;;;24.80;99.90;;;;;;5054119;28;20025;-69
2023/08/13 08:44:07;;;;;;;7.90;2.60;;;25.30;1.00;;;;;;5054075;28;20427;-69
2023/08/13 08:46:33;;;;;;;5.05;1.50;;;25.70;99.90;;;;;;5053968;28;20021;-69
2023/08/13 08:49:00;;;;;;;5.78;2.15;;;26.60;99.90;;;;;;5054185;28;20032;-68
2023/08/13 08:51:25;;;;;;;7.38;2.10;;;25.80;99.90;;;;;;5054387;28;20120;-68
2023/08/13 08:53:52;;;;;;;6.85;1.90;;;25.30;99.90;;;;;;5053983;28;20521;-69
2023/08/13 08:56:18;;;;;;;7.15;1.90;;;25.60;1.00;;;;;;5053788;28;20112;-69
2023/08/13 08:58:44;;;;;;;4.82;1.73;;;25.60;99.90;;;;;;5054258;28;20107;-69
2023/08/13 09:01:09;;;;;;;8.93;2.17;;;25.60;1.00;;;;;;5053948;28;20025;-69
2023/08/13 09:03:35;;;;;;;4.13;1.75;;;25.60;99.90;;;;;;5053894;28;20107;-69
2023/08/13 09:06:01;;;;;;;6.53;1.90;;;26.50;99.90;;;;;;5053802;28;20120;-69
2023/08/13 09:08:26;;;;;;;4.32;1.50;;;27.30;99.90;;;;;;5054153;28;20104;-69
2023/08/13 09:10:53;;;;;;;5.25;1.98;;;26.50;99.90;;;;;;5053841;28;20082;-69
2023/08/13 09:13:18;;;;;;;4.25;1.67;;;26.60;1.00;;;;;;5053479;28;20021;-69
2023/08/13 09:15:47;;;;;;;4.70;1.70;;;26.50;1.00;;;;;;5053557;28;20032;-69
2023/08/13 09:18:13;;;;;;;4.93;1.75;;;26.80;99.90;;;;;;5052851;28;20021;-69
2023/08/13 09:20:44;;;;;;;5.53;1.70;;;25.90;1.00;;;;;;5053422;28;20024;-69
2023/08/13 09:23:10;;;;;;;6.05;1.83;;;26.60;54.50;;;;;;5053389;28;20474;-69
2023/08/13 09:25:37;;;;;;;5.88;1.70;;;26.00;99.90;;;;;;5053784;28;20090;-69
2023/08/13 09:28:03;;;;;;;5.20;1.90;;;25.80;99.90;;;;;;5053391;28;20117;-69
2023/08/13 09:30:32;;;;;;;5.20;1.80;;;26.00;99.90;;;;;;5053555;28;20107;-69
2023/08/13 09:32:59;;;;;;;5.05;1.70;;;25.40;1.00;;;;;;5053375;28;20036;-69
2023/08/13 09:35:26;;;;;;;6.03;1.80;;;25.80;99.90;;;;;;5053618;28;20032;-69
2023/08/13 09:37:53;;;;;;;6.10;1.88;;;26.00;1.00;;;;;;5057858;28;20055;-69
2023/08/13 09:40:18;;;;;;;4.50;1.85;;;26.40;1.00;;;;;;5057569;28;20094;-69
2023/08/13 09:42:46;;;;;;;6.43;1.98;;;26.10;99.90;;;;;;5057770;28;20463;-70
2023/08/13 09:45:16;;;;;;;6.80;1.98;;;26.10;5.50;;;;;;5057752;28;20032;-70
2023/08/13 09:47:44;;;;;;;6.55;1.88;;;26.10;1.00;;;;;;5056514;28;20123;-70
2023/08/13 09:50:12;;;;;;;4.45;1.77;;;26.20;1.00;;;;;;5057689;28;20029;-70
2023/08/13 09:52:42;;;;;;;6.65;1.88;;;25.70;1.00;;;;;;5057166;28;20029;-70
2023/08/13 09:55:13;;;;;;;3.85;1.73;;;25.40;99.90;;;;;;5057377;28;20387;-70
2023/08/13 09:57:40;;;;;;;8.10;2.00;;;25.50;99.90;;;;;;5057522;28;20382;-70
2023/08/13 10:00:09;;;;;;;4.00;1.80;;;25.90;29.10;;;;;;5057536;28;20471;-71
2023/08/13 10:02:37;;;;;;;7.70;1.70;;;26.10;99.90;;;;;;5057232;28;20520;-70
2023/08/13 10:05:03;;;;;;;5.78;1.85;;;25.70;99.90;;;;;;5057091;28;20040;-70
2023/08/13 10:07:30;;;;;;;4.55;1.65;;;26.40;99.90;;;;;;5057346;28;20036;-70
2023/08/13 10:09:59;;;;;;;6.90;1.92;;;26.50;99.90;;;;;;5057087;28;20119;-70
2023/08/13 10:12:25;;;;;;;5.25;1.77;;;26.60;99.90;;;;;;5057282;28;20454;-70
2023/08/13 10:14:51;;;;;;;6.90;1.80;;;26.90;99.90;;;;;;5056214;28;20052;-70
2023/08/13 10:17:18;;;;;;;7.72;1.95;;;26.90;1.00;;;;;;5057215;28;20356;-70
2023/08/13 10:19:49;;;;;;;4.95;1.73;;;26.50;99.90;;;;;;5056963;28;20021;-69
2023/08/13 10:22:24;;;;;;;4.30;1.80;;;26.10;1.00;;;;;;5057042;28;20048;-69
2023/08/13 10:24:49;;;;;;;5.35;1.92;;;25.90;99.90;;;;;;5056630;28;20036;-70
2023/08/13 10:27:15;;;;;;;6.05;1.98;;;25.70;1.00;;;;;;5056979;28;20044;-70
2023/08/13 10:29:41;;;;;;;7.15;1.60;;;25.60;99.90;;;;;;5056700;28;20074;-70
2023/08/13 10:32:13;;;;;;;5.25;2.05;;;25.50;99.90;;;;;;5056021;28;20153;-70
2023/08/13 10:37:20;;;;;;;3.38;1.90;;;25.20;99.90;;;;;;5111391;27;20295;-68
2023/08/13 10:40:02;;;;;;;5.28;1.80;;;25.30;1.00;;;;;;5111410;28;20056;-68
2023/08/13 10:45:08;;;;;;;6.78;1.77;;;25.70;99.90;;;;;;5152970;27;20289;-69
2023/08/13 10:47:53;;;;;;;3.95;1.73;;;25.70;34.40;;;;;;5153207;27;20055;-69
2023/08/13 10:53:04;;;;;;;5.07;1.90;;;26.50;99.90;;;;;;5111942;27;20869;-69
2023/08/13 10:55:32;;;;;;;6.82;1.83;;;27.20;1.00;;;;;;5111723;28;20028;-69
2023/08/13 10:57:59;;;;;;;6.75;2.25;;;27.30;99.90;;;;;;5111601;28;20028;-69
2023/08/13 11:00:26;;;;;;;4.60;1.60;;;27.80;99.90;;;;;;5111779;28;20071;-69
2023/08/13 11:02:57;;;;;;;7.70;2.53;;;27.60;99.90;;;;;;5111769;28;20023;-69
2023/08/13 11:05:23;;;;;;;8.30;2.38;;;26.20;99.90;;;;;;5112014;28;20354;-69
2023/08/13 11:07:51;;;;;;;6.32;2.33;;;25.00;31.70;;;;;;5111853;28;20174;-69
2023/08/13 11:10:19;;;;;;;8.75;2.70;;;25.80;1.00;;;;;;5111364;28;20024;-69
2023/08/13 11:12:46;;;;;;;6.68;2.05;;;26.00;99.90;;;;;;5111388;28;20031;-69
2023/08/13 11:15:12;;;;;;;5.97;2.05;;;26.60;99.90;;;;;;5111337;28;20020;-69
2023/08/13 11:17:40;;;;;;;4.38;2.00;;;25.90;74.30;;;;;;5111713;28;20035;-69
2023/08/13 11:20:07;;;;;;;6.57;2.05;;;26.50;15.50;;;;;;5111140;28;20055;-69
2023/08/13 11:22:33;;;;;;;4.28;1.85;;;26.10;1.00;;;;;;5111167;28;20028;-69
2023/08/13 11:24:58;;;;;;;5.40;1.80;;;26.30;99.90;;;;;;5111644;28;20583;-69
2023/08/13 11:27:29;;;;;;;7.68;1.98;;;26.40;10.90;;;;;;5111611;28;20030;-69
2023/08/13 11:29:55;;;;;;;6.43;2.10;;;24.50;99.90;;;;;;5111398;28;20032;-69
2023/08/13 11:32:21;;;;;;;6.00;2.00;;;25.60;55.30;;;;;;5110909;28;20035;-68
2023/08/13 11:34:46;;;;;;;5.65;2.20;;;25.50;99.90;;;;;;5110958;28;20432;-69
2023/08/13 11:37:13;;;;;;;5.22;2.00;;;26.10;1.00;;;;;;5110754;28;20067;-69
2023/08/13 11:39:38;;;;;;;5.38;2.10;;;25.40;99.90;;;;;;5110660;28;20031;-69
2023/08/13 11:42:08;;;;;;;4.68;1.63;;;25.30;99.90;;;;;;5110935;28;20077;-69
2023/08/13 11:44:35;;;;;;;7.47;2.10;;;25.30;99.90;;;;;;5110914;28;20031;-69
2023/08/13 11:47:00;;;;;;;4.90;1.90;;;25.20;1.00;;;;;;5110474;28;20028;-69
2023/08/13 11:49:27;;;;;;;9.77;1.95;;;25.10;19.20;;;;;;5110459;28;20114;-69
2023/08/13 11:51:57;;;;;;;5.35;2.22;;;25.00;99.90;;;;;;5109964;28;20054;-69
2023/08/13 11:54:24;;;;;;;7.18;2.10;;;25.20;99.90;;;;;;5110565;28;20027;-69
2023/08/13 11:56:54;;;;;;;9.30;2.45;;;24.90;99.90;;;;;;5110998;28;20027;-69
2023/08/13 11:59:25;;;;;;;5.57;2.83;;;24.90;1.00;;;;;;5089883;28;20028;-69
2023/08/13 12:01:53;;;;;;;7.82;1.95;;;24.90;1.00;;;;;;5089819;28;20037;-69
2023/08/13 12:04:19;;;;;;;7.45;2.42;;;25.10;1.00;;;;;;5076111;28;20036;-69
2023/08/13 12:06:46;;;;;;;5.00;2.25;;;25.40;99.90;;;;;;5076440;28;20532;-69
2023/08/13 12:09:13;;;;;;;6.70;2.25;;;25.70;99.90;;;;;;5076907;28;20129;-69
2023/08/13 12:11:40;;;;;;;5.95;2.10;;;25.70;99.90;;;;;;5076682;28;20535;-69
2023/08/13 12:14:09;;;;;;;4.97;1.92;;;25.70;1.00;;;;;;5076505;28;20078;-69
2023/08/13 12:16:38;;;;;;;6.20;2.33;;;26.00;1.00;;;;;;5075883;28;20032;-69
2023/08/13 12:19:06;;;;;;;7.88;2.40;;;25.80;99.90;;;;;;5076556;28;20060;-69
2023/08/13 12:21:33;;;;;;;5.47;2.17;;;25.50;1.00;;;;;;5076088;28;20086;-70
2023/08/13 12:23:58;;;;;;;6.88;2.05;;;25.20;99.90;;;;;;5076326;28;20466;-70
2023/08/13 12:26:24;;;;;;;5.47;2.10;;;25.40;99.90;;;;;;5075765;28;20043;-70
2023/08/13 12:28:50;;;;;;;5.35;2.22;;;25.00;99.90;;;;;;5076260;28;20029;-70
2023/08/13 12:31:18;;;;;;;4.47;1.80;;;25.10;1.00;;;;;;5076003;28;20067;-69
2023/08/13 12:33:45;;;;;;;6.22;2.30;;;23.50;99.90;;;;;;5075924;28;20024;-69
2023/08/13 12:36:10;;;;;;;5.78;2.38;;;24.20;99.90;;;;;;5076011;28;20021;-69
2023/08/13 12:38:39;;;;;;;5.10;2.30;;;24.80;99.90;;;;;;5076012;28;20024;-70
2023/08/13 12:41:06;;;;;;;4.90;2.20;;;24.50;99.90;;;;;;5075769;28;20032;-69
2023/08/13 12:43:31;;;;;;;7.55;2.30;;;24.50;1.00;;;;;;5075888;28;20528;-69
2023/08/13 12:45:57;;;;;;;4.85;1.95;;;24.50;99.90;;;;;;5076305;28;20067;-69
2023/08/13 12:48:23;;;;;;;5.65;1.92;;;24.70;99.90;;;;;;5076195;28;20028;-69